Terminal Aerodrome Forecast
Issued by NWS

Home | Current Version | Previous Version | Text Only | Print | Product List | Glossary On
Versions: 1 2 3 4 5 6 7 8 9 10 11 12 13 14 15 16 17 18 19 20 21 22 23 24 25 26 27 28 29 30 31 32 33 34 35 36 37 38
000
FTUS41 KBOX 271127
TAFBED
TAF
KBED 271127Z 2712/2812 28004KT P6SM FEW020 BKN080
     FM272000 31006KT P6SM BKN035
     FM280300 VRB03KT P6SM OVC015
     FM280700 32004KT 2SM -SN BR OVC015
     FM281100 32005KT P6SM BKN015=

USA.gov is the U.S. government's official web portal to all federal, state and local government web resources and services.